Time;durP1;ratioP1;P1;durP2;ratioP2;P2;SDS_P1;SDS_P2;PMS_P1;PMS_P2;Temp;Humidity;BMP_temperature;BMP_pressure;BME280_temperature;BME280_humidity;BME280_pressure;Samples;Min_cycle;Max_cycle;Signal;HPM_P1;HPM_P2
2024/01/27 00:01:45;;;;;;;5.20;2.90;;;;;;;7.71;55.43;95050.69;5115401;28;20224;-66
2024/01/27 00:04:11;;;;;;;4.97;2.63;;;;;;;7.48;55.32;94997.19;5111926;28;20199;-67
2024/01/27 00:06:38;;;;;;;4.57;2.77;;;;;;;7.72;55.40;95035.31;5111290;28;20569;-64
2024/01/27 00:09:06;;;;;;;4.23;2.73;;;;;;;7.71;55.41;95033.69;5111300;28;20268;-66
2024/01/27 00:11:33;;;;;;;3.03;2.47;;;;;;;7.81;55.42;95049.09;5111400;28;20189;-66
2024/01/27 00:14:01;;;;;;;4.70;2.70;;;;;;;7.70;55.29;95036.34;5111294;28;20189;-67
2024/01/27 00:16:27;;;;;;;3.47;2.53;;;;;;;7.81;55.39;95044.00;5111556;28;20197;-65
2024/01/27 00:18:54;;;;;;;3.97;2.93;;;;;;;7.83;55.43;95044.72;5111026;28;20667;-65
2024/01/27 00:21:21;;;;;;;7.40;3.00;;;;;;;7.83;55.40;95029.44;5111588;28;20177;-62
2024/01/27 00:23:48;;;;;;;5.40;2.73;;;;;;;7.85;55.48;95031.84;5110548;28;20799;-64
2024/01/27 00:26:16;;;;;;;3.47;2.37;;;;;;;7.85;55.40;95025.03;5111320;28;20200;-62
2024/01/27 00:28:42;;;;;;;3.20;2.80;;;;;;;7.86;55.42;95036.84;5110888;28;20238;-65
2024/01/27 00:31:09;;;;;;;4.10;2.67;;;;;;;7.85;55.40;95027.56;5110777;28;20677;-64
2024/01/27 00:33:36;;;;;;;5.70;3.03;;;;;;;7.88;55.39;95029.91;5110438;28;20572;-66
2024/01/27 00:36:03;;;;;;;5.17;2.67;;;;;;;7.77;55.12;95012.06;5110443;28;20192;-63
2024/01/27 00:38:29;;;;;;;3.57;2.40;;;;;;;7.91;55.33;95028.88;5110820;28;20220;-63
2024/01/27 00:40:56;;;;;;;3.63;2.53;;;;;;;7.84;55.40;95027.69;5110627;28;20189;-63
2024/01/27 00:43:24;;;;;;;6.77;3.17;;;;;;;7.82;55.47;95016.84;5110639;28;20227;-63
2024/01/27 00:45:51;;;;;;;3.23;2.50;;;;;;;7.94;55.47;95036.28;5110707;28;20212;-63
2024/01/27 00:48:19;;;;;;;3.00;2.60;;;;;;;7.95;55.29;95036.19;5110606;28;20189;-63
2024/01/27 00:50:46;;;;;;;4.27;2.70;;;;;;;7.96;55.35;95047.97;5110046;28;20592;-65
2024/01/27 00:53:12;;;;;;;4.93;2.80;;;;;;;7.97;55.26;95033.50;5110647;28;20197;-66
2024/01/27 00:55:39;;;;;;;6.77;2.70;;;;;;;7.99;55.32;95039.31;5110607;28;20393;-66
2024/01/27 00:58:06;;;;;;;5.53;3.23;;;;;;;8.01;55.29;95037.44;5110632;28;20233;-64
2024/01/27 01:00:34;;;;;;;7.80;3.30;;;;;;;8.01;55.64;95033.16;5110521;28;20192;-63
2024/01/27 01:03:01;;;;;;;3.77;2.53;;;;;;;8.02;55.38;95019.50;5110337;28;20229;-65
2024/01/27 01:05:28;;;;;;;7.40;2.63;;;;;;;7.97;55.29;95024.13;5109930;28;20661;-63
2024/01/27 01:07:54;;;;;;;2.40;2.23;;;;;;;8.06;55.31;95022.63;5109020;28;20185;-62
2024/01/27 01:10:21;;;;;;;4.80;2.60;;;;;;;8.08;55.29;95025.91;5110426;28;20196;-65
2024/01/27 01:12:48;;;;;;;6.47;3.03;;;;;;;8.08;55.31;95023.34;5110440;28;20557;-61
2024/01/27 01:15:15;;;;;;;3.87;2.20;;;;;;;8.09;55.41;95026.69;5110558;28;20189;-64
2024/01/27 01:17:43;;;;;;;3.13;2.70;;;;;;;8.10;55.39;95039.31;5109662;28;20585;-62
2024/01/27 01:20:10;;;;;;;2.70;2.50;;;;;;;8.12;55.48;95040.03;5109935;28;20200;-65
2024/01/27 01:22:37;;;;;;;6.57;2.40;;;;;;;7.94;55.47;95010.81;5110031;28;20217;-61
2024/01/27 01:25:04;;;;;;;3.20;2.53;;;;;;;8.08;55.38;95018.25;5110188;28;20189;-62
2024/01/27 01:27:31;;;;;;;6.70;2.63;;;;;;;8.11;55.51;95027.38;5109503;28;20612;-63
2024/01/27 01:29:58;;;;;;;6.13;3.17;;;;;;;8.06;55.38;95015.00;5110133;28;20185;-63
2024/01/27 01:32:25;;;;;;;3.70;2.80;;;;;;;8.10;55.58;95018.94;5110341;28;20629;-61
2024/01/27 01:34:53;;;;;;;4.47;2.93;;;;;;;8.10;55.58;95011.28;5109711;28;20662;-61
2024/01/27 01:37:19;;;;;;;5.47;2.80;;;;;;;8.05;55.57;94996.34;5109497;28;20204;-64
2024/01/27 01:39:46;;;;;;;3.23;2.40;;;;;;;8.16;55.40;95010.84;5109296;28;20185;-62
2024/01/27 01:42:13;;;;;;;6.27;2.90;;;;;;;8.13;55.61;95005.97;5109442;28;20185;-64
2024/01/27 01:44:40;;;;;;;6.93;2.63;;;;;;;7.88;55.47;94956.06;5109591;28;20649;-62
2024/01/27 01:47:09;;;;;;;3.83;2.40;;;;;;;8.00;55.54;94972.16;5109874;28;20203;-63
2024/01/27 01:49:37;;;;;;;9.27;2.50;;;;;;;8.21;55.46;94993.47;5109503;28;20188;-63
2024/01/27 01:52:06;;;;;;;4.13;2.70;;;;;;;8.17;55.37;94987.00;5109311;28;20189;-62
2024/01/27 01:54:33;;;;;;;5.43;3.00;;;;;;;8.23;55.54;95001.81;5109804;28;20211;-62
2024/01/27 01:57:00;;;;;;;6.60;3.10;;;;;;;8.26;55.32;95001.59;5109444;28;20716;-62
2024/01/27 01:59:27;;;;;;;5.43;2.90;;;;;;;8.30;55.16;94999.63;5109373;28;20188;-63
2024/01/27 02:01:54;;;;;;;3.50;2.30;;;;;;;7.96;54.93;94937.66;5109344;28;20654;-65
2024/01/27 02:04:21;;;;;;;5.03;2.60;;;;;;;8.07;54.82;94952.94;5109471;28;20251;-66
2024/01/27 02:06:47;;;;;;;3.83;2.67;;;;;;;8.35;54.87;94978.88;5109168;28;20192;-66
2024/01/27 02:09:16;;;;;;;5.23;2.70;;;;;;;8.44;54.87;94984.09;5110147;28;20759;-64
2024/01/27 02:11:42;;;;;;;6.63;2.80;;;;;;;8.21;54.68;94929.78;5110178;28;20189;-64
2024/01/27 02:14:09;;;;;;;4.17;2.73;;;;;;;8.52;54.51;94963.13;5109331;28;20666;-64
2024/01/27 02:16:36;;;;;;;5.30;2.60;;;;;;;8.44;54.45;94948.44;5109139;28;20558;-66
2024/01/27 02:19:03;;;;;;;4.63;2.73;;;;;;;8.59;54.34;94960.91;5109298;28;20204;-67
2024/01/27 02:21:30;;;;;;;3.03;2.50;;;;;;;8.63;54.28;94964.84;5109337;28;20574;-64
2024/01/27 02:23:57;;;;;;;2.67;2.40;;;;;;;8.66;54.00;94967.97;5109526;28;20227;-65
2024/01/27 02:26:25;;;;;;;3.10;2.37;;;;;;;8.70;54.10;94974.44;5109162;28;20622;-63
2024/01/27 02:28:52;;;;;;;6.80;3.47;;;;;;;8.70;53.93;94959.16;5109251;28;20200;-66
2024/01/27 02:31:18;;;;;;;4.90;2.50;;;;;;;8.78;53.72;94958.56;5108938;28;20181;-64
2024/01/27 02:33:45;;;;;;;3.03;2.60;;;;;;;8.82;53.51;94959.13;5109178;28;20208;-64
2024/01/27 02:36:12;;;;;;;3.20;2.23;;;;;;;8.63;53.65;94913.84;5109935;28;20185;-65
2024/01/27 02:38:39;;;;;;;2.80;2.60;;;;;;;8.72;53.43;94936.06;5114311;28;20177;-66
2024/01/27 02:41:06;;;;;;;4.53;2.87;;;;;;;8.91;53.42;94951.56;5121047;28;20192;-67
2024/01/27 02:43:34;;;;;;;4.63;2.70;;;;;;;8.95;53.09;94957.25;5109819;28;20213;-64
2024/01/27 02:46:01;;;;;;;5.43;2.83;;;;;;;8.39;53.21;94866.44;5109101;28;20197;-67
2024/01/27 02:48:28;;;;;;;3.70;2.37;;;;;;;9.00;53.08;94947.47;5108930;28;20562;-62
2024/01/27 02:50:54;;;;;;;4.17;2.23;;;;;;;9.03;53.05;94942.94;5109084;28;20193;-62
2024/01/27 02:53:21;;;;;;;3.50;2.20;;;;;;;9.07;52.90;94947.78;5109210;28;20595;-63
2024/01/27 02:55:48;;;;;;;4.00;2.30;;;;;;;9.10;52.64;94958.56;5111339;28;20610;-65
2024/01/27 02:58:15;;;;;;;3.03;2.20;;;;;;;9.12;52.63;94935.50;5113408;28;20208;-66
2024/01/27 03:00:43;;;;;;;2.53;2.33;;;;;;;9.14;52.60;94952.28;5112372;28;20185;-63
2024/01/27 03:03:09;;;;;;;3.63;2.20;;;;;;;9.17;52.53;94957.16;5112614;28;20701;-61
2024/01/27 03:05:36;;;;;;;3.57;2.50;;;;;;;9.19;52.46;94957.00;5112525;28;20193;-61
2024/01/27 03:08:03;;;;;;;4.17;2.40;;;;;;;9.21;52.29;94963.63;5112622;28;20185;-66
2024/01/27 03:10:31;;;;;;;2.97;2.67;;;;;;;9.23;52.46;94971.94;5112581;28;20196;-64
2024/01/27 03:12:58;;;;;;;3.07;2.40;;;;;;;9.25;52.32;94970.09;5112178;28;20185;-63
2024/01/27 03:15:24;;;;;;;2.77;2.10;;;;;;;9.27;52.43;94978.44;5112574;28;20193;-67
2024/01/27 03:17:53;;;;;;;5.03;2.20;;;;;;;9.30;52.29;94969.75;5112481;28;20193;-65
2024/01/27 03:20:19;;;;;;;3.87;2.50;;;;;;;9.32;52.36;94969.59;5112523;28;20287;-65
2024/01/27 03:22:46;;;;;;;4.07;2.43;;;;;;;9.10;52.46;94938.16;5112124;28;20204;-64
2024/01/27 03:25:13;;;;;;;4.67;2.53;;;;;;;9.35;52.74;94970.16;5112694;28;20199;-67
2024/01/27 03:27:40;;;;;;;3.37;2.47;;;;;;;9.36;52.50;94970.97;5112221;28;20631;-66
2024/01/27 03:30:08;;;;;;;2.57;2.20;;;;;;;9.37;52.72;94967.47;5112378;28;20185;-65
2024/01/27 03:32:35;;;;;;;6.47;2.30;;;;;;;9.19;52.83;94942.50;5111842;28;20184;-65
2024/01/27 03:35:04;;;;;;;3.23;2.60;;;;;;;9.38;52.89;94964.03;5111976;28;20197;-66
2024/01/27 03:37:31;;;;;;;5.87;2.00;;;;;;;9.38;53.28;94959.72;5112477;28;20177;-67
2024/01/27 03:39:58;;;;;;;5.10;2.50;;;;;;;9.38;53.34;94944.41;5111612;28;20558;-64
2024/01/27 03:42:25;;;;;;;5.23;2.50;;;;;;;9.32;53.45;94939.78;5112129;28;20196;-65
2024/01/27 03:44:52;;;;;;;2.60;2.10;;;;;;;9.40;53.56;94949.38;5111538;28;20332;-64
2024/01/27 03:47:18;;;;;;;3.27;2.43;;;;;;;9.40;53.77;94957.03;5112173;28;20220;-64
2024/01/27 03:49:45;;;;;;;4.53;2.33;;;;;;;9.35;54.15;94941.28;5111245;28;20196;-64
2024/01/27 03:52:13;;;;;;;3.47;2.40;;;;;;;9.30;54.31;94927.16;5111962;28;20192;-64
2024/01/27 03:54:40;;;;;;;3.20;2.30;;;;;;;9.40;54.24;94934.88;5111465;28;20661;-66
2024/01/27 03:57:06;;;;;;;6.00;2.70;;;;;;;9.40;54.35;94946.81;5111611;28;20221;-66
2024/01/27 03:59:33;;;;;;;4.63;2.50;;;;;;;9.38;54.56;94944.41;5111460;28;20192;-64
2024/01/27 04:02:00;;;;;;;2.40;2.20;;;;;;;9.38;54.83;94941.06;5112332;28;20604;-66
2024/01/27 04:04:27;;;;;;;3.17;2.47;;;;;;;9.35;54.79;94943.84;5110985;28;20216;-65
2024/01/27 04:06:53;;;;;;;2.30;2.03;;;;;;;9.17;54.80;94921.44;5110323;28;20237;-64
2024/01/27 04:09:21;;;;;;;4.80;2.53;;;;;;;9.35;54.97;94948.94;5111917;28;20189;-66
2024/01/27 04:11:48;;;;;;;6.33;2.87;;;;;;;9.28;55.25;94940.97;5111582;28;20641;-65
2024/01/27 04:14:15;;;;;;;5.13;2.27;;;;;;;9.16;55.33;94919.00;5111297;28;20211;-68
2024/01/27 04:16:42;;;;;;;3.23;2.50;;;;;;;9.02;55.20;94900.53;5110741;28;20189;-65
2024/01/27 04:19:08;;;;;;;3.97;2.60;;;;;;;9.26;55.63;94932.63;5111557;28;20245;-65
2024/01/27 04:21:35;;;;;;;4.20;2.40;;;;;;;9.24;55.63;94929.38;5111105;28;20189;-65
2024/01/27 04:24:02;;;;;;;4.13;2.60;;;;;;;9.13;55.97;94924.34;5111026;28;20232;-67
2024/01/27 04:26:30;;;;;;;4.50;2.50;;;;;;;8.00;55.99;94742.97;5111139;28;20184;-64
2024/01/27 04:28:57;;;;;;;3.30;2.43;;;;;;;8.97;56.00;94901.81;5110987;28;20208;-65
2024/01/27 04:31:24;;;;;;;7.17;2.60;;;;;;;9.15;56.24;94930.13;5110874;28;20242;-65
2024/01/27 04:33:50;;;;;;;4.83;2.80;;;;;;;9.17;56.20;94944.38;5110972;28;20201;-64
2024/01/27 04:36:26;;;;;;;4.37;2.47;;;;;;;9.18;56.37;94948.56;5110363;28;20193;-66
2024/01/27 04:38:53;;;;;;;3.97;2.70;;;;;;;9.17;56.37;94946.13;5111097;28;20188;-63
2024/01/27 04:41:20;;;;;;;3.67;2.70;;;;;;;9.16;56.69;94939.41;5110535;28;20193;-64
2024/01/27 04:43:48;;;;;;;9.43;2.60;;;;;;;8.75;56.69;94879.75;5111239;28;20216;-62
2024/01/27 04:46:14;;;;;;;3.27;2.20;;;;;;;9.00;56.86;94914.31;5110440;28;20189;-64
2024/01/27 04:48:41;;;;;;;6.03;2.60;;;;;;;8.93;56.94;94897.88;5110469;28;20201;-66
2024/01/27 04:51:08;;;;;;;2.40;2.20;;;;;;;9.13;57.06;94934.56;5111044;28;20578;-66
2024/01/27 04:53:35;;;;;;;2.50;2.30;;;;;;;9.20;57.20;94951.00;5110848;28;20596;-67
2024/01/27 04:56:01;;;;;;;2.63;2.07;;;;;;;9.18;57.43;94951.09;5110476;28;20730;-64
2024/01/27 04:58:28;;;;;;;2.73;2.30;;;;;;;9.15;57.46;94935.22;5110059;28;20193;-64
2024/01/27 05:00:56;;;;;;;4.60;2.70;;;;;;;9.15;57.58;94933.47;5110524;28;20594;-63
2024/01/27 05:03:23;;;;;;;2.53;2.33;;;;;;;9.21;57.76;94955.16;5110654;28;20181;-65
2024/01/27 05:05:50;;;;;;;3.30;2.50;;;;;;;9.20;57.83;94951.00;5110285;28;20208;-67
2024/01/27 05:08:17;;;;;;;4.13;2.53;;;;;;;9.22;58.11;94961.88;5110169;28;20185;-67
2024/01/27 05:10:44;;;;;;;2.40;2.20;;;;;;;9.22;58.15;94962.69;5110455;28;20190;-64
2024/01/27 05:13:10;;;;;;;2.80;2.47;;;;;;;9.21;58.18;94963.63;5110244;28;20189;-62
2024/01/27 05:15:37;;;;;;;2.20;2.10;;;;;;;8.56;58.12;94856.66;5110608;28;20181;-64
2024/01/27 05:18:06;;;;;;;3.77;2.43;;;;;;;9.25;58.43;94977.75;5111189;28;20185;-62
2024/01/27 05:20:32;;;;;;;2.83;2.20;;;;;;;9.21;58.42;94961.06;5113718;28;20189;-63
2024/01/27 05:22:59;;;;;;;2.87;2.40;;;;;;;9.12;58.70;94943.94;5110480;28;20750;-62
2024/01/27 05:25:26;;;;;;;3.67;2.17;;;;;;;9.13;58.68;94939.66;5110113;28;20700;-62
2024/01/27 05:27:53;;;;;;;3.27;2.43;;;;;;;9.19;58.71;94947.63;5110563;28;20243;-66
2024/01/27 05:30:19;;;;;;;2.73;2.50;;;;;;;9.29;59.09;94973.22;5110989;28;20184;-64
2024/01/27 05:32:46;;;;;;;2.33;2.13;;;;;;;9.23;59.25;94953.28;5110352;28;20196;-62
2024/01/27 05:35:15;;;;;;;2.70;2.10;;;;;;;9.24;59.31;94957.44;5109705;28;20177;-63
2024/01/27 05:37:41;;;;;;;2.30;2.10;;;;;;;9.23;59.39;94961.75;5109908;28;20681;-62
2024/01/27 05:40:10;;;;;;;3.07;2.27;;;;;;;9.28;59.04;94961.38;5109592;28;20200;-63
2024/01/27 05:42:37;;;;;;;2.20;2.00;;;;;;;9.32;59.60;94964.50;5109478;28;20241;-62
2024/01/27 05:45:04;;;;;;;3.13;1.93;;;;;;;9.29;59.50;94968.13;5109736;28;20274;-63
2024/01/27 05:47:31;;;;;;;2.63;1.73;;;;;;;9.28;59.76;94974.97;5110199;28;20211;-62
2024/01/27 05:49:58;;;;;;;2.33;2.13;;;;;;;9.36;59.87;94984.53;5109800;28;20196;-62
2024/01/27 05:52:26;;;;;;;3.47;1.97;;;;;;;9.37;59.55;94982.81;5109107;28;20197;-62
2024/01/27 05:54:53;;;;;;;5.23;2.40;;;;;;;9.39;59.85;94980.94;5109567;28;20672;-66
2024/01/27 05:57:20;;;;;;;2.43;2.00;;;;;;;8.54;59.71;94846.56;5109505;28;20239;-64
2024/01/27 05:59:47;;;;;;;3.60;2.40;;;;;;;9.42;59.98;95001.13;5110057;28;20672;-63
2024/01/27 06:02:14;;;;;;;2.20;2.00;;;;;;;9.35;60.23;94974.47;5109077;28;20185;-65
2024/01/27 06:04:40;;;;;;;2.73;2.37;;;;;;;9.36;60.20;94973.53;5109993;28;20745;-63
2024/01/27 06:07:07;;;;;;;3.03;2.30;;;;;;;9.32;60.48;94972.16;5109486;28;20732;-62
2024/01/27 06:09:35;;;;;;;2.73;2.43;;;;;;;9.43;60.38;95002.75;5109837;28;20204;-62
2024/01/27 06:12:02;;;;;;;2.40;2.20;;;;;;;9.46;60.50;94994.84;5109530;28;20749;-63
2024/01/27 06:14:29;;;;;;;4.17;2.60;;;;;;;9.47;60.58;94999.81;5109292;28;20276;-63
2024/01/27 06:16:55;;;;;;;2.10;1.90;;;;;;;9.48;60.69;95009.09;5109377;28;20197;-63
2024/01/27 06:19:22;;;;;;;2.40;2.20;;;;;;;9.44;60.72;95001.81;5109668;28;20181;-62
2024/01/27 06:21:49;;;;;;;2.40;2.20;;;;;;;9.52;60.87;95004.56;5109269;28;20596;-62
2024/01/27 06:24:16;;;;;;;2.80;2.00;;;;;;;9.46;60.89;94987.19;5109008;28;20601;-62
2024/01/27 06:26:43;;;;;;;3.03;2.07;;;;;;;9.55;60.98;95007.69;5108990;28;20185;-65
2024/01/27 06:29:10;;;;;;;2.20;2.00;;;;;;;9.39;60.91;94978.41;5109580;28;20232;-64
2024/01/27 06:31:37;;;;;;;2.27;2.10;;;;;;;9.58;61.23;95016.81;5113170;28;20576;-65
2024/01/27 06:34:04;;;;;;;3.83;2.20;;;;;;;9.54;61.19;95039.25;5113047;28;20219;-64
2024/01/27 06:36:32;;;;;;;3.83;2.07;;;;;;;9.61;61.26;95043.84;5113240;28;20192;-66
2024/01/27 06:38:59;;;;;;;2.80;1.83;;;;;;;9.59;61.53;95049.09;5113119;28;20710;-65
2024/01/27 06:41:25;;;;;;;2.20;2.10;;;;;;;9.61;61.43;95044.66;5107350;28;20311;-67
2024/01/27 06:43:53;;;;;;;1.90;1.80;;;;;;;9.68;61.39;95052.66;5090832;28;20234;-62
2024/01/27 06:46:20;;;;;;;1.80;1.70;;;;;;;9.63;61.48;95047.09;5110504;28;20197;-62
2024/01/27 06:48:47;;;;;;;2.00;1.77;;;;;;;9.61;61.61;95044.66;5111007;28;20189;-64
2024/01/27 06:51:14;;;;;;;3.90;2.23;;;;;;;9.71;61.31;95063.41;5110258;28;20935;-65
2024/01/27 06:53:41;;;;;;;2.30;2.10;;;;;;;9.73;61.40;95069.22;5110265;28;20200;-66
2024/01/27 06:56:11;;;;;;;2.00;1.90;;;;;;;9.75;61.31;95054.56;5110324;28;20686;-68
2024/01/27 06:58:37;;;;;;;1.97;1.77;;;;;;;9.70;61.43;95058.44;5109720;28;20193;-68
2024/01/27 07:01:07;;;;;;;1.97;1.87;;;;;;;9.80;61.44;95074.63;5110530;28;20181;-67
2024/01/27 07:03:34;;;;;;;1.90;1.80;;;;;;;9.84;61.27;95070.91;5110352;28;20181;-65
2024/01/27 07:06:01;;;;;;;1.90;1.80;;;;;;;9.63;61.21;95021.53;5109869;27;20227;-69
2024/01/27 07:08:29;;;;;;;2.03;1.93;;;;;;;9.96;61.14;95052.03;5096978;28;20238;-69
2024/01/27 07:10:56;;;;;;;2.00;1.90;;;;;;;9.75;61.03;95016.25;5110199;28;20231;-67
2024/01/27 07:13:22;;;;;;;2.27;2.03;;;;;;;10.10;61.07;95053.44;5110402;28;20197;-67
2024/01/27 07:15:49;;;;;;;1.70;1.60;;;;;;;10.15;61.08;95056.47;5109606;28;20185;-66
2024/01/27 07:18:19;;;;;;;2.40;2.20;;;;;;;10.21;60.67;95057.69;5106913;27;20651;-68
2024/01/27 07:20:46;;;;;;;2.20;2.10;;;;;;;10.18;60.46;95052.81;5109565;28;20620;-68
2024/01/27 07:23:12;;;;;;;2.00;1.90;;;;;;;10.31;60.56;95061.13;5109928;28;20207;-69
2024/01/27 07:25:39;;;;;;;1.90;1.80;;;;;;;10.31;60.54;95079.03;5109912;28;20232;-66
2024/01/27 07:28:06;;;;;;;1.77;1.67;;;;;;;10.32;60.52;95078.09;5110461;28;20197;-68
2024/01/27 07:30:33;;;;;;;2.20;2.00;;;;;;;10.35;60.57;95092.38;5109367;28;20665;-70
2024/01/27 07:33:00;;;;;;;2.13;1.63;;;;;;;10.31;60.45;95091.81;5109952;28;20189;-68
2024/01/27 07:35:28;;;;;;;2.00;1.90;;;;;;;10.33;60.29;95102.72;5109802;28;20219;-66
2024/01/27 07:37:55;;;;;;;2.10;2.00;;;;;;;10.31;60.53;95122.47;5108363;28;20314;-66
2024/01/27 07:40:22;;;;;;;2.00;1.90;;;;;;;10.32;60.48;95161.63;5108780;28;20177;-65
2024/01/27 07:42:49;;;;;;;2.27;2.07;;;;;;;10.30;60.11;95159.22;5109774;28;20288;-65
2024/01/27 07:45:16;;;;;;;2.03;1.93;;;;;;;10.19;60.29;95152.41;5110062;28;20577;-67
2024/01/27 07:47:43;;;;;;;3.03;2.17;;;;;;;10.30;59.98;95172.00;5110146;28;20276;-70
2024/01/27 07:50:10;;;;;;;2.40;2.20;;;;;;;10.28;59.92;95174.69;5109291;28;20261;-76
2024/01/27 07:52:39;;;;;;;2.10;1.90;;;;;;;10.35;62.68;95163.94;5110128;28;20657;-69
2024/01/27 07:55:06;;;;;;;4.00;2.07;;;;;;;11.05;98.66;95168.34;5111527;28;20214;-62
2024/01/27 07:57:33;;;;;;;3.87;1.80;;;;;;;11.93;98.65;95165.09;5094356;28;20225;-67
2024/01/27 08:00:00;;;;;;;2.07;1.70;;;;;;;12.75;93.97;95166.34;5097815;28;20311;-67
2024/01/27 08:02:26;;;;;;;2.60;2.07;;;;;;;13.46;89.60;95170.97;5092714;28;20190;-61
2024/01/27 08:04:53;;;;;;;2.03;1.73;;;;;;;14.04;85.50;95165.47;5089178;28;20287;-61
2024/01/27 08:07:20;;;;;;;1.80;1.70;;;;;;;14.58;81.72;95179.09;5088975;28;20208;-62
2024/01/27 08:09:48;;;;;;;2.70;2.00;;;;;;;15.01;78.58;95177.44;5106356;28;20203;-67
2024/01/27 08:12:15;;;;;;;2.37;2.00;;;;;;;15.45;75.63;95180.69;5109272;28;20185;-67
2024/01/27 08:14:42;;;;;;;2.37;1.90;;;;;;;15.70;73.54;95176.47;5109163;28;20200;-63
2024/01/27 08:17:09;;;;;;;1.87;1.77;;;;;;;16.08;71.70;95199.28;5108482;28;20185;-65
2024/01/27 08:19:37;;;;;;;2.67;1.90;;;;;;;16.36;69.90;95174.78;5109242;28;20256;-67
2024/01/27 08:22:04;;;;;;;2.23;2.03;;;;;;;16.60;68.28;95160.25;5108831;28;20908;-67
2024/01/27 08:24:31;;;;;;;2.20;2.00;;;;;;;16.90;66.53;95171.72;5109032;28;20213;-74
2024/01/27 08:27:00;;;;;;;1.80;1.70;;;;;;;17.08;65.35;95164.56;5108938;28;20189;-65
2024/01/27 08:29:27;;;;;;;2.90;1.90;;;;;;;17.23;64.13;95175.81;5108400;28;20186;-64
2024/01/27 08:31:54;;;;;;;1.97;1.87;;;;;;;17.39;63.31;95166.38;5108824;28;20205;-67
2024/01/27 08:34:20;;;;;;;2.37;2.03;;;;;;;17.47;62.17;95151.63;5107756;28;20189;-66
2024/01/27 08:36:47;;;;;;;2.57;2.03;;;;;;;17.49;62.08;95148.91;5107509;28;20189;-67
2024/01/27 08:39:14;;;;;;;1.80;1.70;;;;;;;17.33;60.90;95164.47;5107900;28;20221;-66
2024/01/27 08:41:41;;;;;;;2.43;2.27;;;;;;;17.13;60.27;95195.06;5108034;28;20195;-71
2024/01/27 08:44:09;;;;;;;2.20;2.00;;;;;;;16.94;59.76;95188.50;5108088;28;20185;-68
2024/01/27 08:46:36;;;;;;;2.00;1.90;;;;;;;16.83;58.91;95161.22;5108211;28;20692;-68
2024/01/27 08:49:02;;;;;;;2.80;2.30;;;;;;;16.70;58.66;95172.00;5108252;28;20608;-69
2024/01/27 08:51:29;;;;;;;2.10;1.97;;;;;;;16.67;58.06;95179.31;5108490;28;20635;-69
2024/01/27 08:53:56;;;;;;;3.30;2.13;;;;;;;16.59;57.99;95193.03;5106964;28;20569;-66
2024/01/27 08:56:23;;;;;;;2.30;2.10;;;;;;;16.45;57.58;95173.84;5108007;28;20229;-62
2024/01/27 08:58:51;;;;;;;6.13;2.37;;;;;;;16.14;57.06;95131.53;5108222;28;20191;-67
2024/01/27 09:01:19;;;;;;;3.37;2.43;;;;;;;16.48;56.51;95172.69;5106566;28;20205;-66
2024/01/27 09:03:46;;;;;;;2.10;1.90;;;;;;;16.55;55.86;95189.16;5107913;28;20276;-67
2024/01/27 09:06:13;;;;;;;2.27;2.07;;;;;;;16.47;55.74;95173.66;5107311;28;20220;-67
2024/01/27 09:08:39;;;;;;;5.00;2.30;;;;;;;16.34;55.34;95174.16;5107075;28;20185;-71
2024/01/27 09:11:06;;;;;;;5.13;2.43;;;;;;;16.21;55.27;95173.81;5110235;28;20181;-71
2024/01/27 09:13:33;;;;;;;2.33;2.13;;;;;;;16.03;55.13;95181.69;5110168;28;20185;-71
2024/01/27 09:16:00;;;;;;;2.07;1.97;;;;;;;15.95;54.92;95179.09;5110342;28;20565;-68
2024/01/27 09:18:28;;;;;;;4.37;2.30;;;;;;;15.74;54.79;95167.44;5110285;28;20225;-66
2024/01/27 09:20:55;;;;;;;2.30;2.10;;;;;;;15.78;54.63;95170.53;5109955;28;20181;-62
2024/01/27 09:23:22;;;;;;;2.50;2.30;;;;;;;15.74;54.50;95179.53;5110328;28;20189;-60
2024/01/27 09:25:49;;;;;;;3.73;2.17;;;;;;;15.57;54.25;95163.97;5110004;28;20232;-62
2024/01/27 09:28:16;;;;;;;2.27;2.07;;;;;;;15.69;54.27;95179.22;5110497;28;20196;-63
2024/01/27 09:30:43;;;;;;;2.83;2.00;;;;;;;15.67;53.95;95174.22;5110029;28;20572;-66
2024/01/27 09:33:10;;;;;;;2.37;2.17;;;;;;;15.66;53.84;95146.00;5110286;28;20268;-63
2024/01/27 09:35:38;;;;;;;2.20;2.00;;;;;;;15.69;53.61;95156.81;5110165;28;20181;-61
2024/01/27 09:38:07;;;;;;;2.30;2.10;;;;;;;15.64;53.62;95145.31;5109661;28;20192;-69
2024/01/27 09:40:34;;;;;;;3.03;1.90;;;;;;;15.51;53.79;95146.56;5110174;28;20621;-67
2024/01/27 09:43:01;;;;;;;3.23;2.10;;;;;;;15.38;53.84;95150.56;5110003;28;20265;-66
2024/01/27 09:45:28;;;;;;;2.53;2.33;;;;;;;15.23;53.72;95156.28;5109681;28;20209;-68
2024/01/27 09:47:58;;;;;;;2.37;2.17;;;;;;;15.05;53.70;95148.63;5109848;28;20196;-67
2024/01/27 09:50:25;;;;;;;2.13;1.90;;;;;;;14.84;53.52;95161.09;5111080;28;20188;-71
2024/01/27 09:52:54;;;;;;;2.37;2.17;;;;;;;14.64;53.98;95168.22;5111724;28;20197;-73
2024/01/27 09:55:21;;;;;;;2.30;2.10;;;;;;;14.45;53.60;95165.78;5110936;28;20577;-70
2024/01/27 09:57:49;;;;;;;2.10;2.00;;;;;;;14.36;53.86;95187.25;5109574;28;20243;-67
2024/01/27 10:00:17;;;;;;;4.43;2.17;;;;;;;14.20;53.87;95201.59;5109746;28;20197;-65
2024/01/27 10:02:46;;;;;;;3.87;2.07;;;;;;;13.91;53.90;95183.81;5109504;28;20197;-64
2024/01/27 10:05:14;;;;;;;3.27;2.00;;;;;;;13.77;53.96;95180.00;5112631;28;20231;-65
2024/01/27 10:07:41;;;;;;;2.93;2.60;;;;;;;13.74;54.08;95198.28;5113669;28;20193;-64
2024/01/27 10:10:10;;;;;;;1.97;1.87;;;;;;;13.64;54.16;95205.22;5113795;28;20185;-64
2024/01/27 10:12:41;;;;;;;2.47;2.27;;;;;;;13.50;54.46;95203.94;5111180;28;20197;-64
2024/01/27 10:15:19;;;;;;;2.27;2.10;;;;;;;12.72;54.32;95103.28;5111917;28;20271;-73
2024/01/27 10:17:45;;;;;;;2.10;1.90;;;;;;;13.22;54.25;95218.53;5111352;28;20292;-65
2024/01/27 10:20:15;;;;;;;2.50;1.90;;;;;;;13.00;54.74;95206.00;5099436;28;20650;-65
2024/01/27 10:22:43;;;;;;;2.87;2.20;;;;;;;12.98;54.98;95215.59;5090569;28;20246;-68
2024/01/27 10:25:11;;;;;;;2.03;1.90;;;;;;;12.87;55.05;95220.91;5090685;28;20315;-62
2024/01/27 10:27:38;;;;;;;2.27;2.17;;;;;;;12.62;55.16;95200.00;5090669;28;20213;-67
2024/01/27 10:30:06;;;;;;;2.20;2.00;;;;;;;12.68;55.02;95234.56;5090974;28;20262;-64
2024/01/27 10:32:34;;;;;;;2.10;1.90;;;;;;;12.57;55.13;95224.47;5090909;28;20205;-64
2024/01/27 10:35:04;;;;;;;2.30;2.07;;;;;;;12.47;55.21;95243.22;5091934;28;20189;-76
2024/01/27 10:37:31;;;;;;;2.17;1.97;;;;;;;12.37;55.20;95244.97;5109944;28;20647;-73
2024/01/27 10:40:02;;;;;;;2.93;2.20;;;;;;;12.29;55.40;95235.41;5119578;28;20181;-63
2024/01/27 10:42:31;;;;;;;2.27;2.13;;;;;;;12.19;55.23;95233.78;5120272;28;20257;-68
2024/01/27 10:45:00;;;;;;;2.03;1.83;;;;;;;12.14;55.37;95231.63;5110625;28;20245;-67
2024/01/27 10:47:29;;;;;;;6.13;2.30;;;;;;;12.08;55.44;95237.28;5109964;28;20232;-69
2024/01/27 10:49:57;;;;;;;2.20;1.90;;;;;;;12.01;55.46;95244.69;5110651;28;20212;-65
2024/01/27 10:52:28;;;;;;;2.33;2.13;;;;;;;11.94;55.55;95235.91;5110525;28;20427;-65
2024/01/27 10:54:59;;;;;;;3.43;2.13;;;;;;;11.77;55.42;95229.63;5110077;28;20196;-67
2024/01/27 10:57:27;;;;;;;1.80;1.67;;;;;;;11.84;55.52;95239.41;5110344;28;20252;-63
2024/01/27 10:59:57;;;;;;;2.30;2.20;;;;;;;11.46;55.48;95197.34;5110383;28;20192;-65
2024/01/27 11:02:24;;;;;;;2.83;1.83;;;;;;;11.70;55.42;95243.94;5109786;28;20189;-65
2024/01/27 11:04:53;;;;;;;2.57;2.13;;;;;;;11.66;55.59;95231.50;5109990;28;20205;-66
2024/01/27 11:07:22;;;;;;;2.47;2.10;;;;;;;11.63;55.71;95245.38;5110483;28;20216;-70
2024/01/27 11:09:51;;;;;;;2.30;2.10;;;;;;;11.46;55.78;95231.44;5110502;28;20189;-67
2024/01/27 11:12:20;;;;;;;2.20;2.00;;;;;;;11.48;55.66;95237.22;5110094;28;20197;-65
2024/01/27 11:14:48;;;;;;;2.00;1.90;;;;;;;11.34;55.75;95222.22;5110202;28;20220;-65
2024/01/27 11:17:16;;;;;;;3.33;2.20;;;;;;;11.48;55.95;95244.09;5109419;28;20699;-68
2024/01/27 11:19:43;;;;;;;2.03;1.83;;;;;;;11.44;55.96;95240.19;5109984;28;20185;-66
2024/01/27 11:22:24;;;;;;;2.30;2.07;;;;;;;11.41;55.90;95233.59;5109253;28;20911;-67
2024/01/27 11:24:51;;;;;;;2.00;1.80;;;;;;;11.26;55.92;95222.88;5109296;28;20697;-67
2024/01/27 11:27:18;;;;;;;1.90;1.80;;;;;;;11.36;56.14;95245.16;5109264;28;20696;-67
2024/01/27 11:29:48;;;;;;;2.20;2.00;;;;;;;11.05;56.08;95215.25;5109933;28;20189;-69
2024/01/27 11:32:16;;;;;;;2.17;1.97;;;;;;;11.31;55.96;95258.31;5110139;28;20197;-67
2024/01/27 11:34:45;;;;;;;1.97;1.83;;;;;;;11.26;56.26;95245.09;5109718;28;20189;-66
2024/01/27 11:37:13;;;;;;;2.23;2.03;;;;;;;11.21;56.43;95248.03;5110181;28;20196;-62
2024/01/27 11:39:40;;;;;;;2.37;2.17;;;;;;;11.14;56.40;95223.91;5109794;28;20192;-68